createdAt,value
2023-04-18T00:01:09.640Z,102040.75
2023-04-18T00:03:37.123Z,102041.53
2023-04-18T00:06:03.786Z,102043.75
2023-04-18T00:08:30.264Z,102044.09
2023-04-18T00:10:56.920Z,102043.94
2023-04-18T00:13:23.425Z,102036.97
2023-04-18T00:15:49.821Z,102039.91
2023-04-18T00:18:17.223Z,102040.13
2023-04-18T00:20:43.848Z,102049.13
2023-04-18T00:23:13.941Z,102044.22
2023-04-18T00:25:40.792Z,102045.84
2023-04-18T00:28:07.195Z,102050.63
2023-04-18T00:30:33.726Z,102033.75
2023-04-18T00:33:00.417Z,102033.81
2023-04-18T00:35:26.884Z,102035.59
2023-04-18T00:37:53.343Z,102038.38
2023-04-18T00:40:19.911Z,102031.50
2023-04-18T00:42:46.409Z,102041.88
2023-04-18T00:45:13.849Z,102041.19
2023-04-18T00:47:40.344Z,102034.59
2023-04-18T00:50:08.297Z,102037.44
2023-04-18T00:52:35.814Z,102033.19
2023-04-18T00:55:07.645Z,102033.34
2023-04-18T00:57:34.746Z,102034.66
2023-04-18T01:00:09.735Z,102037.44
2023-04-18T01:02:37.401Z,102034.16
2023-04-18T01:05:04.356Z,102031.41
2023-04-18T01:07:33.392Z,102036.84
2023-04-18T01:10:01.556Z,102034.28
2023-04-18T01:12:28.013Z,102033.38
2023-04-18T01:14:54.476Z,102035.44
2023-04-18T01:17:22.363Z,102037.19
2023-04-18T01:19:51.084Z,102036.38
2023-04-18T01:22:18.810Z,102036.59
2023-04-18T01:24:45.502Z,102030.16
2023-04-18T01:27:13.434Z,102023.50
2023-04-18T01:29:40.624Z,102026.38
2023-04-18T01:32:07.322Z,102026.66
2023-04-18T01:34:33.903Z,102020.56
2023-04-18T01:37:00.347Z,102025.69
2023-04-18T01:39:26.778Z,102017.09
2023-04-18T01:41:53.148Z,102013.47
2023-04-18T01:44:19.620Z,102014.81
2023-04-18T01:46:46.048Z,102013.00
2023-04-18T01:49:12.720Z,102016.53
2023-04-18T01:51:39.397Z,102014.38
2023-04-18T01:54:05.998Z,102010.59
2023-04-18T01:56:32.456Z,102005.47
2023-04-18T01:59:00.651Z,102015.09
2023-04-18T02:01:27.691Z,102013.44
2023-04-18T02:03:54.293Z,102009.06
2023-04-18T02:06:20.883Z,102002.06
2023-04-18T02:08:47.782Z,102017.41
2023-04-18T02:11:14.192Z,102001.28
2023-04-18T02:13:40.604Z,102001.94
2023-04-18T02:16:12.510Z,101996.09
2023-04-18T02:18:40.072Z,101998.72
2023-04-18T02:21:07.086Z,102009.56
2023-04-18T02:23:33.524Z,102010.44
2023-04-18T02:25:59.940Z,102010.66
2023-04-18T02:28:26.304Z,102004.41
2023-04-18T02:30:52.875Z,102004.53
2023-04-18T02:33:19.267Z,102008.13
2023-04-18T02:35:45.713Z,102002.88
2023-04-18T02:38:13.661Z,102005.47
2023-04-18T02:40:40.096Z,102009.81
2023-04-18T02:43:06.488Z,102004.63
2023-04-18T02:45:33.043Z,102008.31
2023-04-18T02:48:01.039Z,102006.63
2023-04-18T02:50:28.936Z,102000.38
2023-04-18T02:52:56.765Z,102012.69
2023-04-18T02:55:28.758Z,102004.66
2023-04-18T02:57:58.422Z,102008.28
2023-04-18T03:00:58.520Z,102008.41
2023-04-18T03:03:43.321Z,101998.78
2023-04-18T03:06:32.734Z,101999.72
2023-04-18T03:09:01.429Z,102005.09
2023-04-18T03:11:28.097Z,102010.44
2023-04-18T03:13:55.384Z,102008.00
2023-04-18T03:16:24.439Z,102001.72
2023-04-18T03:18:51.219Z,102011.41
2023-04-18T03:21:19.392Z,102004.63
2023-04-18T03:23:46.088Z,102004.72
2023-04-18T03:26:13.773Z,101999.75
2023-04-18T03:28:41.612Z,102011.97
2023-04-18T03:31:08.795Z,102009.06
2023-04-18T03:33:39.153Z,102000.44
2023-04-18T03:36:09.244Z,102013.09
2023-04-18T03:38:36.115Z,102008.75
2023-04-18T03:41:02.814Z,102015.19
2023-04-18T03:43:33.250Z,102011.50
2023-04-18T03:45:59.794Z,102003.97
2023-04-18T03:48:26.981Z,102013.09
2023-04-18T03:50:53.890Z,102013.06
2023-04-18T03:53:20.458Z,102011.97
2023-04-18T03:55:47.765Z,102015.34
2023-04-18T03:58:17.977Z,102016.31
2023-04-18T04:00:44.403Z,102014.44
2023-04-18T04:03:11.415Z,102016.28
2023-04-18T04:05:39.523Z,102020.63
2023-04-18T04:08:06.281Z,102023.97
2023-04-18T04:10:33.839Z,102022.94
2023-04-18T04:13:00.251Z,102027.44
2023-04-18T04:15:27.441Z,102025.34
2023-04-18T04:18:00.460Z,102024.31
2023-04-18T04:20:27.689Z,102034.09
2023-04-18T04:23:02.034Z,102033.91
2023-04-18T04:25:30.747Z,102026.63
2023-04-18T04:28:01.415Z,102031.25
2023-04-18T04:30:28.580Z,102038.31
2023-04-18T04:32:55.166Z,102030.00
2023-04-18T04:35:22.104Z,102032.66
2023-04-18T04:37:48.553Z,102037.13
2023-04-18T04:40:24.651Z,102037.84
2023-04-18T04:43:05.997Z,102043.91
2023-04-18T04:45:39.499Z,102042.94
2023-04-18T04:48:06.084Z,102037.38
2023-04-18T04:50:40.939Z,102047.19
2023-04-18T04:53:09.700Z,102057.72
2023-04-18T04:55:36.111Z,102052.53
2023-04-18T04:58:04.192Z,102051.81
2023-04-18T05:00:52.420Z,102054.25
2023-04-18T05:03:19.808Z,102057.63
2023-04-18T05:05:46.342Z,102056.88
2023-04-18T05:08:12.716Z,102057.47
2023-04-18T05:10:39.325Z,102067.25
2023-04-18T05:13:05.756Z,102061.00
2023-04-18T05:15:32.566Z,102069.59
2023-04-18T05:17:59.315Z,102067.78
2023-04-18T05:20:26.940Z,102052.53
2023-04-18T05:22:53.334Z,102067.69
2023-04-18T05:25:19.945Z,102065.69
2023-04-18T05:27:46.994Z,102062.84
2023-04-18T05:30:13.725Z,102068.88
2023-04-18T05:32:40.321Z,102056.22
2023-04-18T05:35:07.614Z,102066.72
2023-04-18T05:37:34.263Z,102064.25
2023-04-18T05:40:01.137Z,102073.03
2023-04-18T05:42:27.670Z,102075.28
2023-04-18T05:44:54.066Z,102083.03
2023-04-18T05:47:20.999Z,102078.41
2023-04-18T05:49:47.504Z,102085.53
2023-04-18T05:52:13.871Z,102089.63
2023-04-18T05:54:41.049Z,102091.28
2023-04-18T05:57:07.402Z,102086.31
2023-04-18T05:59:33.790Z,102096.00
2023-04-18T06:02:00.675Z,102096.97
2023-04-18T06:04:27.132Z,102097.72
2023-04-18T06:06:53.698Z,102091.66
2023-04-18T06:09:20.156Z,102100.63
2023-04-18T06:11:46.824Z,102108.63
2023-04-18T06:14:13.509Z,102108.56
2023-04-18T06:16:40.230Z,102101.44
2023-04-18T06:19:06.725Z,102112.94
2023-04-18T06:21:33.198Z,102117.94
2023-04-18T06:24:01.265Z,102110.06
2023-04-18T06:26:27.786Z,102118.91
2023-04-18T06:28:54.161Z,102114.28
2023-04-18T06:31:21.097Z,102124.53
2023-04-18T06:33:47.465Z,102119.19
2023-04-18T06:36:13.864Z,102114.94
2023-04-18T06:38:40.361Z,102120.63
2023-04-18T06:41:06.737Z,102118.47
2023-04-18T06:43:33.168Z,102121.66
2023-04-18T06:46:01.032Z,102118.56
2023-04-18T06:48:27.536Z,102122.34
2023-04-18T06:50:53.891Z,102126.00
2023-04-18T06:53:20.399Z,102122.34
2023-04-18T06:55:46.800Z,102124.53
2023-04-18T06:58:15.957Z,102127.00
2023-04-18T07:00:43.206Z,102135.69
2023-04-18T07:03:13.533Z,102138.81
2023-04-18T07:05:40.465Z,102142.66
2023-04-18T07:08:07.117Z,102139.50
2023-04-18T07:10:33.558Z,102140.47
2023-04-18T07:13:00.000Z,102144.78
2023-04-18T07:15:26.556Z,102138.59
2023-04-18T07:17:53.054Z,102149.25
2023-04-18T07:20:19.637Z,102150.94
2023-04-18T07:22:47.863Z,102148.78
2023-04-18T07:25:14.278Z,102142.69
2023-04-18T07:27:40.697Z,102154.00
2023-04-18T07:30:07.671Z,102149.66
2023-04-18T07:32:34.586Z,102153.88
2023-04-18T07:35:01.228Z,102148.16
2023-04-18T07:37:27.755Z,102147.09
2023-04-18T07:39:54.270Z,102147.69
2023-04-18T07:42:20.660Z,102148.66
2023-04-18T07:44:47.417Z,102147.38
2023-04-18T07:47:13.788Z,102145.88
2023-04-18T07:49:40.210Z,102153.66
2023-04-18T07:52:07.156Z,102151.34
2023-04-18T07:54:33.628Z,102154.81
2023-04-18T07:57:00.734Z,102154.41
2023-04-18T07:59:27.733Z,102158.13
2023-04-18T08:01:54.228Z,102163.31
2023-04-18T08:04:20.980Z,102160.50
2023-04-18T08:06:47.440Z,102152.34
2023-04-18T08:09:14.129Z,102159.91
2023-04-18T08:11:42.402Z,102162.69
2023-04-18T08:14:08.786Z,102157.81
2023-04-18T08:16:35.330Z,102163.72
2023-04-18T08:19:01.816Z,102162.53
2023-04-18T08:21:28.195Z,102168.50
2023-04-18T08:23:54.648Z,102168.38
2023-04-18T08:26:21.812Z,102168.06
2023-04-18T08:28:48.322Z,102162.28
2023-04-18T08:31:16.231Z,102167.00
2023-04-18T08:33:42.895Z,102169.69
2023-04-18T08:36:09.717Z,102167.63
2023-04-18T08:38:36.173Z,102177.19
2023-04-18T08:41:02.630Z,102180.06
2023-04-18T08:43:31.026Z,102173.56
2023-04-18T08:45:59.378Z,102178.19
2023-04-18T08:48:28.169Z,102169.22
2023-04-18T08:50:58.646Z,102170.50
2023-04-18T08:53:26.696Z,102178.13
2023-04-18T08:55:56.936Z,102178.13
2023-04-18T08:58:24.150Z,102175.94
2023-04-18T09:00:52.742Z,102179.09
2023-04-18T09:03:40.088Z,102175.22
2023-04-18T09:06:13.517Z,102173.84
2023-04-18T09:08:43.942Z,102177.88
2023-04-18T09:11:24.349Z,102175.63
2023-04-18T09:13:51.709Z,102172.66
2023-04-18T09:16:22.302Z,102173.22
2023-04-18T09:19:08.636Z,102182.22
2023-04-18T09:21:38.676Z,102184.94
2023-04-18T09:24:22.186Z,102187.50
2023-04-18T09:26:49.797Z,102189.72
2023-04-18T09:29:18.379Z,102186.75
2023-04-18T09:32:01.266Z,102179.91
2023-04-18T09:34:29.007Z,102177.44
2023-04-18T09:37:09.886Z,102173.41
2023-04-18T09:39:42.058Z,102179.56
2023-04-18T09:42:10.334Z,102180.06
2023-04-18T09:44:38.191Z,102178.19
2023-04-18T09:47:06.353Z,102178.19
2023-04-18T09:49:32.818Z,102174.56
2023-04-18T09:52:00.396Z,102172.09
2023-04-18T09:54:32.106Z,102170.41
2023-04-18T09:57:00.796Z,102174.22
2023-04-18T09:59:35.623Z,102172.66
2023-04-18T10:02:05.373Z,102164.66
2023-04-18T10:04:33.703Z,102170.34
2023-04-18T10:07:01.768Z,102169.81
2023-04-18T10:09:33.033Z,102162.75
2023-04-18T10:12:02.109Z,102165.44
2023-04-18T10:14:32.840Z,102172.16
2023-04-18T10:16:59.966Z,102169.53
2023-04-18T10:19:28.520Z,102168.38
2023-04-18T10:21:57.188Z,102156.81
2023-04-18T10:24:49.496Z,102165.50
2023-04-18T10:27:17.607Z,102160.16
2023-04-18T10:29:48.022Z,102152.03
2023-04-18T10:32:14.733Z,102162.47
2023-04-18T10:34:41.340Z,102157.63
2023-04-18T10:37:07.853Z,102157.38
2023-04-18T10:39:50.863Z,102153.13
2023-04-18T10:42:17.373Z,102155.81
2023-04-18T10:44:43.838Z,102155.34
2023-04-18T10:47:10.235Z,102147.38
2023-04-18T10:49:36.892Z,102144.03
2023-04-18T10:52:05.869Z,102144.09
2023-04-18T10:54:38.760Z,102147.94
2023-04-18T10:57:07.559Z,102148.66
2023-04-18T10:59:37.315Z,102141.19
2023-04-18T11:02:24.024Z,102139.47
2023-04-18T11:04:55.290Z,102126.69
2023-04-18T11:07:48.781Z,102131.50
2023-04-18T11:10:24.534Z,102132.22
2023-04-18T11:12:51.540Z,102130.47
2023-04-18T11:15:21.526Z,102132.69
2023-04-18T11:18:02.534Z,102126.38
2023-04-18T11:20:37.399Z,102121.19
2023-04-18T11:23:03.838Z,102118.50
2023-04-18T11:25:32.313Z,102125.44
2023-04-18T11:28:00.706Z,102126.81
2023-04-18T11:30:28.465Z,102124.75
2023-04-18T11:32:55.916Z,102118.91
2023-04-18T11:35:22.577Z,102124.34
2023-04-18T11:37:50.177Z,102123.88
2023-04-18T11:40:16.645Z,102120.97
2023-04-18T11:42:43.299Z,102112.81
2023-04-18T11:45:11.602Z,102131.34
2023-04-18T11:47:38.597Z,102138.84
2023-04-18T11:50:07.610Z,102139.25
2023-04-18T11:52:35.559Z,102139.63
2023-04-18T11:55:21.135Z,102132.47
2023-04-18T11:57:55.670Z,102137.69
2023-04-18T12:00:34.309Z,102136.66
2023-04-18T12:03:04.585Z,102134.06
2023-04-18T12:05:36.273Z,102134.69
2023-04-18T12:08:14.077Z,102134.59
2023-04-18T12:10:48.080Z,102141.06
2023-04-18T12:13:14.528Z,102137.75
2023-04-18T12:15:43.789Z,102139.41
2023-04-18T12:18:12.780Z,102133.03
2023-04-18T12:20:50.214Z,102137.06
2023-04-18T12:23:35.348Z,102131.03
2023-04-18T12:26:07.186Z,102130.59
2023-04-18T12:28:35.113Z,102129.34
2023-04-18T12:31:02.692Z,102132.34
2023-04-18T12:33:30.417Z,102129.00
2023-04-18T12:35:57.278Z,102127.25
2023-04-18T12:38:23.750Z,102124.16
2023-04-18T12:40:51.944Z,102119.03
2023-04-18T12:43:19.010Z,102121.19
2023-04-18T12:45:46.798Z,102125.38
2023-04-18T12:48:13.657Z,102120.34
2023-04-18T12:50:40.055Z,102120.47
2023-04-18T12:53:06.651Z,102117.81
2023-04-18T12:55:33.434Z,102113.72
2023-04-18T12:57:59.892Z,102121.19
2023-04-18T13:00:30.013Z,102118.56
2023-04-18T13:02:57.231Z,102113.44
2023-04-18T13:05:26.019Z,102120.47
2023-04-18T13:07:58.716Z,102121.19
2023-04-18T13:10:31.839Z,102128.59
2023-04-18T13:12:58.253Z,102124.72
2023-04-18T13:15:24.749Z,102117.72
2023-04-18T13:17:51.274Z,102120.72
2023-04-18T13:20:17.825Z,102130.53
2023-04-18T13:22:45.152Z,102126.63
2023-04-18T13:25:11.802Z,102124.28
2023-04-18T13:27:41.727Z,102120.03
2023-04-18T13:30:10.884Z,102113.81
2023-04-18T13:32:38.925Z,102120.09
2023-04-18T13:35:08.171Z,102125.41
2023-04-18T13:37:34.628Z,102122.91
2023-04-18T13:40:01.022Z,102123.41
2023-04-18T13:42:27.429Z,102119.41
2023-04-18T13:44:54.344Z,102118.13
2023-04-18T13:47:20.736Z,102111.50
2023-04-18T13:49:47.122Z,102115.16
2023-04-18T13:52:13.545Z,102102.91
2023-04-18T13:54:41.202Z,102104.38
2023-04-18T13:57:11.448Z,102107.91
2023-04-18T13:59:42.257Z,102106.41
2023-04-18T14:02:09.501Z,102101.19
2023-04-18T14:04:36.626Z,102108.59
2023-04-18T14:07:03.849Z,102104.66
2023-04-18T14:09:30.268Z,102100.34
2023-04-18T14:11:58.106Z,102099.34
2023-04-18T14:14:24.683Z,102101.03
2023-04-18T14:16:51.142Z,102095.81
2023-04-18T14:19:17.903Z,102086.88
2023-04-18T14:21:46.415Z,102089.56
2023-04-18T14:24:13.253Z,102084.16
2023-04-18T14:26:39.658Z,102091.94
2023-04-18T14:29:06.101Z,102081.16
2023-04-18T14:31:32.587Z,102090.66
2023-04-18T14:33:59.035Z,102077.25
2023-04-18T14:36:26.202Z,102078.41
2023-04-18T14:38:52.623Z,102077.81
2023-04-18T14:41:19.031Z,102077.78
2023-04-18T14:43:45.434Z,102076.38
2023-04-18T14:46:13.264Z,102073.97
2023-04-18T14:48:39.811Z,102068.50
2023-04-18T14:51:06.865Z,102060.16
2023-04-18T14:53:33.448Z,102063.59
2023-04-18T14:55:59.849Z,102064.94
2023-04-18T14:58:26.201Z,102059.66
2023-04-18T15:00:52.608Z,102054.00
2023-04-18T15:03:19.303Z,102054.94
2023-04-18T15:05:49.031Z,102046.47
2023-04-18T15:08:16.069Z,102053.09
2023-04-18T15:10:42.651Z,102058.72
2023-04-18T15:13:09.733Z,102051.84
2023-04-18T15:15:37.616Z,102066.03
2023-04-18T15:18:04.378Z,102057.69
2023-04-18T15:20:30.948Z,102060.88
2023-04-18T15:22:57.383Z,102054.06
2023-04-18T15:25:25.914Z,102055.63
2023-04-18T15:27:52.670Z,102062.03
2023-04-18T15:30:19.261Z,102062.53
2023-04-18T15:32:45.819Z,102056.09
2023-04-18T15:35:12.718Z,102059.72
2023-04-18T15:37:39.218Z,102055.94
2023-04-18T15:40:09.106Z,102052.38
2023-04-18T15:42:35.726Z,102051.63
2023-04-18T15:45:03.862Z,102060.53
2023-04-18T15:47:31.067Z,102056.63
2023-04-18T15:49:57.500Z,102065.91
2023-04-18T15:52:23.856Z,102048.59
2023-04-18T15:54:51.750Z,102048.28
2023-04-18T15:57:18.108Z,102056.19
2023-04-18T15:59:44.488Z,102055.13
2023-04-18T16:02:10.956Z,102055.34
2023-04-18T16:04:37.391Z,102053.44
2023-04-18T16:07:03.798Z,102049.75
2023-04-18T16:09:30.535Z,102052.06
2023-04-18T16:11:57.591Z,102046.56
2023-04-18T16:14:23.968Z,102048.31
2023-04-18T16:16:50.318Z,102047.50
2023-04-18T16:19:17.009Z,102053.81
2023-04-18T16:21:43.367Z,102042.94
2023-04-18T16:24:09.736Z,102040.16
2023-04-18T16:26:36.137Z,102049.50
2023-04-18T16:29:02.594Z,102045.00
2023-04-18T16:31:29.031Z,102050.09
2023-04-18T16:33:55.953Z,102052.00
2023-04-18T16:36:22.477Z,102040.69
2023-04-18T16:38:48.906Z,102046.94
2023-04-18T16:41:15.383Z,102048.13
2023-04-18T16:43:41.738Z,102047.75
2023-04-18T16:46:08.453Z,102049.19
2023-04-18T16:48:37.656Z,102042.75
2023-04-18T16:51:04.471Z,102043.94
2023-04-18T16:53:30.924Z,102050.25
2023-04-18T16:55:57.547Z,102053.00
2023-04-18T16:58:23.890Z,102039.44
2023-04-18T17:00:50.346Z,102050.88
2023-04-18T17:03:16.945Z,102042.97
2023-04-18T17:05:43.517Z,102043.41
2023-04-18T17:08:09.908Z,102041.97
2023-04-18T17:10:36.342Z,102046.97
2023-04-18T17:13:03.342Z,102052.25
2023-04-18T17:15:29.869Z,102048.69
2023-04-18T17:17:56.568Z,102048.41
2023-04-18T17:20:23.561Z,102053.44
2023-04-18T17:22:49.984Z,102057.25
2023-04-18T17:25:16.654Z,102045.22
2023-04-18T17:27:43.133Z,102054.38
2023-04-18T17:30:10.070Z,102054.31
2023-04-18T17:32:36.872Z,102055.28
2023-04-18T17:35:06.111Z,102057.75
2023-04-18T17:37:32.504Z,102063.97
2023-04-18T17:40:00.253Z,102053.72
2023-04-18T17:42:26.785Z,102066.81
2023-04-18T17:44:53.154Z,102057.28
2023-04-18T17:47:19.501Z,102056.69
2023-04-18T17:49:46.277Z,102062.72
2023-04-18T17:52:12.830Z,102072.47
2023-04-18T17:54:39.239Z,102074.75
2023-04-18T17:57:05.596Z,102072.44
2023-04-18T17:59:37.437Z,102077.94
2023-04-18T18:02:05.151Z,102075.50
2023-04-18T18:04:31.757Z,102081.91
2023-04-18T18:06:58.732Z,102083.41
2023-04-18T18:09:25.168Z,102083.66
2023-04-18T18:11:54.026Z,102085.66
2023-04-18T18:14:21.945Z,102075.09
2023-04-18T18:16:48.457Z,102080.63
2023-04-18T18:19:15.225Z,102082.19
2023-04-18T18:21:42.508Z,102085.56
2023-04-18T18:24:09.193Z,102089.75
2023-04-18T18:26:36.150Z,102087.75
2023-04-18T18:29:08.990Z,102090.94
2023-04-18T18:31:36.042Z,102094.41
2023-04-18T18:34:02.618Z,102096.97
2023-04-18T18:36:29.029Z,102097.66
2023-04-18T18:38:55.479Z,102102.69
2023-04-18T18:41:24.806Z,102103.56
2023-04-18T18:43:51.736Z,102104.84
2023-04-18T18:46:18.566Z,102104.69
2023-04-18T18:48:45.024Z,102114.41
2023-04-18T18:51:11.619Z,102108.41
2023-04-18T18:53:40.337Z,102123.88
2023-04-18T18:56:08.845Z,102117.72
2023-04-18T18:58:35.852Z,102121.84
2023-04-18T19:01:03.240Z,102122.88
2023-04-18T19:03:29.942Z,102125.78
2023-04-18T19:05:56.700Z,102127.81
2023-04-18T19:08:23.506Z,102127.66
2023-04-18T19:10:50.601Z,102128.94
2023-04-18T19:13:21.155Z,102133.50
2023-04-18T19:15:47.554Z,102127.41
2023-04-18T19:18:14.986Z,102139.31
2023-04-18T19:20:41.779Z,102129.69
2023-04-18T19:23:08.200Z,102133.47
2023-04-18T19:25:34.563Z,102139.19
2023-04-18T19:28:00.930Z,102140.44
2023-04-18T19:30:27.343Z,102142.19
2023-04-18T19:32:53.750Z,102150.13
2023-04-18T19:35:20.409Z,102148.56
2023-04-18T19:37:46.867Z,102145.09
2023-04-18T19:40:14.327Z,102144.47
2023-04-18T19:42:40.972Z,102150.03
2023-04-18T19:45:07.754Z,102149.19
2023-04-18T19:47:34.203Z,102150.03
2023-04-18T19:50:01.086Z,102161.34
2023-04-18T19:52:27.620Z,102160.38
2023-04-18T19:54:55.216Z,102160.53
2023-04-18T19:57:21.773Z,102160.47
2023-04-18T19:59:48.240Z,102164.31
2023-04-18T20:02:14.648Z,102165.03
2023-04-18T20:04:41.802Z,102156.19
2023-04-18T20:07:08.381Z,102159.22
2023-04-18T20:09:34.746Z,102155.81
2023-04-18T20:12:02.517Z,102157.19
2023-04-18T20:14:29.300Z,102162.69
2023-04-18T20:16:56.506Z,102161.78
2023-04-18T20:19:26.694Z,102166.44
2023-04-18T20:21:53.124Z,102166.34
2023-04-18T20:24:21.100Z,102161.44
2023-04-18T20:26:47.876Z,102165.84
2023-04-18T20:29:14.494Z,102167.66
2023-04-18T20:31:42.314Z,102166.91
2023-04-18T20:34:09.726Z,102170.09
2023-04-18T20:36:41.266Z,102163.88
2023-04-18T20:39:12.200Z,102169.16
2023-04-18T20:41:46.522Z,102174.78
2023-04-18T20:44:13.809Z,102174.66
2023-04-18T20:46:40.882Z,102178.84
2023-04-18T20:49:08.281Z,102172.78
2023-04-18T20:51:35.677Z,102178.78
2023-04-18T20:54:02.253Z,102185.09
2023-04-18T20:56:28.914Z,102178.84
2023-04-18T20:58:55.515Z,102186.75
2023-04-18T21:01:22.440Z,102186.88
2023-04-18T21:03:49.377Z,102185.00
2023-04-18T21:06:15.985Z,102187.00
2023-04-18T21:08:42.378Z,102193.06
2023-04-18T21:11:08.754Z,102185.09
2023-04-18T21:13:35.356Z,102193.78
2023-04-18T21:16:03.396Z,102189.50
2023-04-18T21:18:30.198Z,102196.97
2023-04-18T21:20:56.553Z,102197.34
2023-04-18T21:23:23.508Z,102195.47
2023-04-18T21:25:50.423Z,102204.06
2023-04-18T21:28:20.192Z,102199.06
2023-04-18T21:30:46.821Z,102192.78
2023-04-18T21:33:13.750Z,102198.03
2023-04-18T21:35:40.187Z,102194.66
2023-04-18T21:38:06.550Z,102193.59
2023-04-18T21:40:33.290Z,102187.34
2023-04-18T21:42:59.718Z,102194.25
2023-04-18T21:45:26.269Z,102188.22
2023-04-18T21:47:52.848Z,102184.34
2023-04-18T21:50:19.430Z,102191.78
2023-04-18T21:52:45.865Z,102195.97
2023-04-18T21:55:12.320Z,102191.84
2023-04-18T21:57:38.689Z,102195.53
2023-04-18T22:00:08.513Z,102191.69
2023-04-18T22:02:36.600Z,102195.03
2023-04-18T22:05:03.174Z,102189.09
2023-04-18T22:07:29.794Z,102194.66
2023-04-18T22:09:58.415Z,102193.50
2023-04-18T22:12:26.227Z,102190.81
2023-04-18T22:14:52.740Z,102182.94
2023-04-18T22:17:19.233Z,102185.63
2023-04-18T22:19:47.138Z,102190.31
2023-04-18T22:22:13.502Z,102188.66
2023-04-18T22:24:39.907Z,102184.97
2023-04-18T22:27:06.327Z,102189.50
2023-04-18T22:29:32.971Z,102187.84
2023-04-18T22:31:59.320Z,102184.66
2023-04-18T22:34:25.728Z,102186.47
2023-04-18T22:36:52.085Z,102186.31
2023-04-18T22:39:18.472Z,102187.44
2023-04-18T22:41:44.852Z,102180.13
2023-04-18T22:44:11.228Z,102190.91
2023-04-18T22:46:38.471Z,102188.00
2023-04-18T22:49:05.446Z,102184.88
2023-04-18T22:51:32.465Z,102176.78
2023-04-18T22:53:58.850Z,102178.25
2023-04-18T22:56:25.393Z,102178.09
2023-04-18T22:58:51.768Z,102178.81
2023-04-18T23:01:18.480Z,102182.56
2023-04-18T23:03:45.042Z,102181.56
2023-04-18T23:06:11.693Z,102185.25
2023-04-18T23:08:38.166Z,102179.09
2023-04-18T23:11:04.591Z,102181.78
2023-04-18T23:13:30.959Z,102176.38
2023-04-18T23:15:57.353Z,102166.56
2023-04-18T23:18:23.828Z,102176.31
2023-04-18T23:20:50.277Z,102179.53
2023-04-18T23:23:16.720Z,102182.53
2023-04-18T23:25:44.030Z,102172.03
2023-04-18T23:28:10.587Z,102179.84
2023-04-18T23:30:37.171Z,102179.84
2023-04-18T23:33:03.752Z,102171.59
2023-04-18T23:35:30.398Z,102171.50
2023-04-18T23:37:57.233Z,102173.31
2023-04-18T23:40:23.733Z,102168.50
2023-04-18T23:42:50.164Z,102175.88
2023-04-18T23:45:16.636Z,102171.50
2023-04-18T23:47:43.329Z,102179.13
2023-04-18T23:50:10.157Z,102175.53
2023-04-18T23:52:38.068Z,102173.78
2023-04-18T23:55:04.778Z,102170.31
2023-04-18T23:57:31.207Z,102169.28
2023-04-18T23:59:57.808Z,102165.53
